Time;durP1;ratioP1;P1;durP2;ratioP2;P2;SDS_P1;SDS_P2;PMS_P1;PMS_P2;Temp;Humidity;BMP_temperature;BMP_pressure;BME280_temperature;BME280_humidity;BME280_pressure;Samples;Min_cycle;Max_cycle;Signal;HPM_P1;HPM_P2
2020/11/21 00:00:40;;;;;;;7.899999;4.299999;;;;;;;-1.98;73.82617;96915.19;;;;
2020/11/21 00:01:41;;;;;;;7.899999;4.299999;;;;;;;-1.98;73.82617;96915.19;;;;
2020/11/21 00:02:43;;;;;;;7.899999;4.299999;;;;;;;-1.98;73.82617;96915.19;;;;
2020/11/21 00:03:43;;;;;;;7.899999;4.299999;;;;;;;-1.98;73.82617;96915.19;;;;
2020/11/21 00:04:45;;;;;;;7.899999;4.299999;;;;;;;-1.98;73.82617;96915.19;;;;
2020/11/21 00:05:45;;;;;;;7.899999;4.299999;;;;;;;-1.98;73.82617;96915.19;;;;
2020/11/21 00:06:46;;;;;;;7.899999;4.299999;;;;;;;-1.98;73.82617;96915.19;;;;
2020/11/21 00:07:46;;;;;;;5.949999;3.3;;;;;;;-2.11;74.19824;96906.52;;;;
2020/11/21 00:08:47;;;;;;;5.949999;3.3;;;;;;;-2.11;74.19824;96906.52;;;;
2020/11/21 00:09:48;;;;;;;5.949999;3.3;;;;;;;-2.11;74.19824;96906.52;;;;
2020/11/21 00:10:48;;;;;;;5.949999;3.3;;;;;;;-2.11;74.19824;96906.52;;;;
2020/11/21 00:11:50;;;;;;;5.949999;3.3;;;;;;;-2.11;74.19824;96906.52;;;;
2020/11/21 00:12:50;;;;;;;5.949999;3.3;;;;;;;-2.11;74.19824;96906.52;;;;
2020/11/21 00:13:51;;;;;;;5.949999;3.3;;;;;;;-2.11;74.19824;96906.52;;;;
2020/11/21 00:14:52;;;;;;;5.949999;3.3;;;;;;;-2.11;74.19824;96906.52;;;;
2020/11/21 00:15:52;;;;;;;5.949999;3.3;;;;;;;-2.11;74.19824;96906.52;;;;
2020/11/21 00:16:53;;;;;;;5.949999;3.3;;;;;;;-2.11;74.19824;96906.52;;;;
2020/11/21 00:17:53;;;;;;;5.949999;3.3;;;;;;;-2.11;74.19824;96906.52;;;;
2020/11/21 00:18:54;;;;;;;5.299999;3.299999;;;;;;;-2.14;74.46289;96886.88;;;;
2020/11/21 00:19:55;;;;;;;5.299999;3.299999;;;;;;;-2.14;74.46289;96886.88;;;;
2020/11/21 00:20:55;;;;;;;5.299999;3.299999;;;;;;;-2.14;74.46289;96886.88;;;;
2020/11/21 00:21:58;;;;;;;5.299999;3.299999;;;;;;;-2.14;74.46289;96886.88;;;;
2020/11/21 00:22:58;;;;;;;5.299999;3.299999;;;;;;;-2.14;74.46289;96886.88;;;;
2020/11/21 00:23:59;;;;;;;5.299999;3.299999;;;;;;;-2.14;74.46289;96886.88;;;;
2020/11/21 00:24:59;;;;;;;5.299999;3.299999;;;;;;;-2.14;74.46289;96886.88;;;;
2020/11/21 00:26:00;;;;;;;5.299999;3.299999;;;;;;;-2.14;74.46289;96886.88;;;;
2020/11/21 00:27:00;;;;;;;5.299999;3.299999;;;;;;;-2.14;74.46289;96886.88;;;;
2020/11/21 00:28:01;;;;;;;5.299999;3.299999;;;;;;;-2.14;74.46289;96886.88;;;;
2020/11/21 00:29:01;;;;;;;7.6;2.8;;;;;;;-2.21;74.48047;96896.69;;;;
2020/11/21 00:30:02;;;;;;;7.6;2.8;;;;;;;-2.21;74.48047;96896.69;;;;
2020/11/21 00:31:02;;;;;;;7.6;2.8;;;;;;;-2.21;74.48047;96896.69;;;;
2020/11/21 00:32:03;;;;;;;7.6;2.8;;;;;;;-2.21;74.48047;96896.69;;;;
2020/11/21 00:33:04;;;;;;;7.6;2.8;;;;;;;-2.21;74.48047;96896.69;;;;
2020/11/21 00:34:05;;;;;;;7.6;2.8;;;;;;;-2.21;74.48047;96896.69;;;;
2020/11/21 00:35:06;;;;;;;7.6;2.8;;;;;;;-2.21;74.48047;96896.69;;;;
2020/11/21 00:36:07;;;;;;;7.6;2.8;;;;;;;-2.21;74.48047;96896.69;;;;
2020/11/21 00:37:08;;;;;;;7.6;2.8;;;;;;;-2.21;74.48047;96896.69;;;;
2020/11/21 00:38:08;;;;;;;7.6;2.8;;;;;;;-2.21;74.48047;96896.69;;;;
2020/11/21 00:39:09;;;;;;;7.6;2.8;;;;;;;-2.21;74.48047;96896.69;;;;
2020/11/21 00:40:09;;;;;;;4.299999;3.05;;;;;;;-2.28;74.49023;96899.88;;;;
2020/11/21 00:41:10;;;;;;;4.299999;3.05;;;;;;;-2.28;74.49023;96899.88;;;;
2020/11/21 00:42:10;;;;;;;4.299999;3.05;;;;;;;-2.28;74.49023;96899.88;;;;
2020/11/21 00:43:11;;;;;;;4.299999;3.05;;;;;;;-2.28;74.49023;96899.88;;;;
2020/11/21 00:44:11;;;;;;;4.299999;3.05;;;;;;;-2.28;74.49023;96899.88;;;;
2020/11/21 00:45:12;;;;;;;4.299999;3.05;;;;;;;-2.28;74.49023;96899.88;;;;
2020/11/21 00:46:13;;;;;;;4.299999;3.05;;;;;;;-2.28;74.49023;96899.88;;;;
2020/11/21 00:47:13;;;;;;;4.299999;3.05;;;;;;;-2.28;74.49023;96899.88;;;;
2020/11/21 00:48:14;;;;;;;4.299999;3.05;;;;;;;-2.28;74.49023;96899.88;;;;
2020/11/21 00:49:14;;;;;;;4.299999;3.05;;;;;;;-2.28;74.49023;96899.88;;;;
2020/11/21 00:50:15;;;;;;;5.599999;3.3;;;;;;;-2.28;74.49023;96899.44;;;;
2020/11/21 00:51:15;;;;;;;5.599999;3.3;;;;;;;-2.28;74.49023;96899.44;;;;
2020/11/21 00:52:16;;;;;;;5.599999;3.3;;;;;;;-2.28;74.49023;96899.44;;;;
2020/11/21 00:53:16;;;;;;;5.599999;3.3;;;;;;;-2.28;74.49023;96899.44;;;;
2020/11/21 00:54:17;;;;;;;5.599999;3.3;;;;;;;-2.28;74.49023;96899.44;;;;
2020/11/21 00:55:17;;;;;;;5.599999;3.3;;;;;;;-2.28;74.49023;96899.44;;;;
2020/11/21 00:56:18;;;;;;;5.599999;3.3;;;;;;;-2.28;74.49023;96899.44;;;;
2020/11/21 00:57:18;;;;;;;5.599999;3.3;;;;;;;-2.28;74.49023;96899.44;;;;
2020/11/21 00:58:19;;;;;;;5.599999;3.3;;;;;;;-2.28;74.49023;96899.44;;;;
2020/11/21 00:59:19;;;;;;;5.599999;3.3;;;;;;;-2.28;74.49023;96899.44;;;;
2020/11/21 01:00:20;;;;;;;5.599999;3.3;;;;;;;-2.28;74.49023;96899.44;;;;
2020/11/21 01:01:20;;;;;;;7.349999;3.5;;;;;;;-2.36;74.66406;96903.57;;;;
2020/11/21 01:02:21;;;;;;;7.349999;3.5;;;;;;;-2.36;74.66406;96903.57;;;;
2020/11/21 01:03:21;;;;;;;7.349999;3.5;;;;;;;-2.36;74.66406;96903.57;;;;
2020/11/21 01:04:22;;;;;;;7.349999;3.5;;;;;;;-2.36;74.66406;96903.57;;;;
2020/11/21 01:05:24;;;;;;;7.349999;3.5;;;;;;;-2.36;74.66406;96903.57;;;;
2020/11/21 01:06:24;;;;;;;7.349999;3.5;;;;;;;-2.36;74.66406;96903.57;;;;
2020/11/21 01:07:25;;;;;;;7.349999;3.5;;;;;;;-2.36;74.66406;96903.57;;;;
2020/11/21 01:08:26;;;;;;;7.349999;3.5;;;;;;;-2.36;74.66406;96903.57;;;;
2020/11/21 01:09:26;;;;;;;7.349999;3.5;;;;;;;-2.36;74.66406;96903.57;;;;
2020/11/21 01:10:27;;;;;;;7.349999;3.5;;;;;;;-2.36;74.66406;96903.57;;;;
2020/11/21 01:11:27;;;;;;;9.399999;3.9;;;;;;;-2.46;74.75977;96905.72;;;;
2020/11/21 01:12:28;;;;;;;9.399999;3.9;;;;;;;-2.46;74.75977;96905.72;;;;
2020/11/21 01:13:28;;;;;;;9.399999;3.9;;;;;;;-2.46;74.75977;96905.72;;;;
2020/11/21 01:14:29;;;;;;;9.399999;3.9;;;;;;;-2.46;74.75977;96905.72;;;;
2020/11/21 01:15:29;;;;;;;9.399999;3.9;;;;;;;-2.46;74.75977;96905.72;;;;
2020/11/21 01:16:30;;;;;;;9.399999;3.9;;;;;;;-2.46;74.75977;96905.72;;;;
2020/11/21 01:17:30;;;;;;;9.399999;3.9;;;;;;;-2.46;74.75977;96905.72;;;;
2020/11/21 01:18:31;;;;;;;9.399999;3.9;;;;;;;-2.46;74.75977;96905.72;;;;
2020/11/21 01:19:31;;;;;;;9.399999;3.9;;;;;;;-2.46;74.75977;96905.72;;;;
2020/11/21 01:20:32;;;;;;;9.399999;3.9;;;;;;;-2.46;74.75977;96905.72;;;;
2020/11/21 01:21:32;;;;;;;9.399999;3.9;;;;;;;-2.46;74.75977;96905.72;;;;
2020/11/21 01:22:33;;;;;;;6.5;3.15;;;;;;;-2.47;74.84961;96910.24;;;;
2020/11/21 01:23:34;;;;;;;6.5;3.15;;;;;;;-2.47;74.84961;96910.24;;;;
2020/11/21 01:24:34;;;;;;;6.5;3.15;;;;;;;-2.47;74.84961;96910.24;;;;
2020/11/21 01:25:35;;;;;;;6.5;3.15;;;;;;;-2.47;74.84961;96910.24;;;;
2020/11/21 01:26:35;;;;;;;6.5;3.15;;;;;;;-2.47;74.84961;96910.24;;;;
2020/11/21 01:27:36;;;;;;;6.5;3.15;;;;;;;-2.47;74.84961;96910.24;;;;
2020/11/21 01:28:36;;;;;;;6.5;3.15;;;;;;;-2.47;74.84961;96910.24;;;;
2020/11/21 01:29:37;;;;;;;6.5;3.15;;;;;;;-2.47;74.84961;96910.24;;;;
2020/11/21 01:30:37;;;;;;;6.5;3.15;;;;;;;-2.47;74.84961;96910.24;;;;
2020/11/21 01:31:38;;;;;;;6.5;3.15;;;;;;;-2.47;74.84961;96910.24;;;;
2020/11/21 01:32:39;;;;;;;6.5;3.15;;;;;;;-2.47;74.84961;96910.24;;;;
2020/11/21 01:33:39;;;;;;;7.099999;3.2;;;;;;;-2.5;74.73047;96917.52;;;;
2020/11/21 01:34:40;;;;;;;7.099999;3.2;;;;;;;-2.5;74.73047;96917.52;;;;
2020/11/21 01:35:40;;;;;;;7.099999;3.2;;;;;;;-2.5;74.73047;96917.52;;;;
2020/11/21 01:36:41;;;;;;;7.099999;3.2;;;;;;;-2.5;74.73047;96917.52;;;;
2020/11/21 01:37:41;;;;;;;7.099999;3.2;;;;;;;-2.5;74.73047;96917.52;;;;
2020/11/21 01:38:42;;;;;;;7.099999;3.2;;;;;;;-2.5;74.73047;96917.52;;;;
2020/11/21 01:39:42;;;;;;;7.099999;3.2;;;;;;;-2.5;74.73047;96917.52;;;;
2020/11/21 01:40:43;;;;;;;7.099999;3.2;;;;;;;-2.5;74.73047;96917.52;;;;
2020/11/21 01:41:43;;;;;;;7.099999;3.2;;;;;;;-2.5;74.73047;96917.52;;;;
2020/11/21 01:42:44;;;;;;;7.099999;3.2;;;;;;;-2.5;74.73047;96917.52;;;;
2020/11/21 01:43:44;;;;;;;6.4;3.5;;;;;;;-2.57;74.72949;96918.02;;;;
2020/11/21 01:44:45;;;;;;;6.4;3.5;;;;;;;-2.57;74.72949;96918.02;;;;
2020/11/21 01:45:46;;;;;;;6.4;3.5;;;;;;;-2.57;74.72949;96918.02;;;;
2020/11/21 01:46:46;;;;;;;6.4;3.5;;;;;;;-2.57;74.72949;96918.02;;;;
2020/11/21 01:47:47;;;;;;;6.4;3.5;;;;;;;-2.57;74.72949;96918.02;;;;
2020/11/21 01:48:47;;;;;;;6.4;3.5;;;;;;;-2.57;74.72949;96918.02;;;;
2020/11/21 01:49:48;;;;;;;6.4;3.5;;;;;;;-2.57;74.72949;96918.02;;;;
2020/11/21 01:50:49;;;;;;;6.4;3.5;;;;;;;-2.57;74.72949;96918.02;;;;
2020/11/21 01:51:49;;;;;;;6.4;3.5;;;;;;;-2.57;74.72949;96918.02;;;;
2020/11/21 01:52:50;;;;;;;6.4;3.5;;;;;;;-2.57;74.72949;96918.02;;;;
2020/11/21 01:53:50;;;;;;;6.4;3.5;;;;;;;-2.57;74.72949;96918.02;;;;
2020/11/21 01:54:51;;;;;;;7.25;3.35;;;;;;;-2.65;74.66406;96919.51;;;;
2020/11/21 01:55:51;;;;;;;7.25;3.35;;;;;;;-2.65;74.66406;96919.51;;;;
2020/11/21 01:56:52;;;;;;;7.25;3.35;;;;;;;-2.65;74.66406;96919.51;;;;
2020/11/21 01:57:52;;;;;;;7.25;3.35;;;;;;;-2.65;74.66406;96919.51;;;;
2020/11/21 01:58:53;;;;;;;7.25;3.35;;;;;;;-2.65;74.66406;96919.51;;;;
2020/11/21 01:59:54;;;;;;;7.25;3.35;;;;;;;-2.65;74.66406;96919.51;;;;
2020/11/21 02:00:55;;;;;;;7.25;3.35;;;;;;;-2.65;74.66406;96919.51;;;;
2020/11/21 02:01:56;;;;;;;7.25;3.35;;;;;;;-2.65;74.66406;96919.51;;;;
2020/11/21 02:02:56;;;;;;;7.25;3.35;;;;;;;-2.65;74.66406;96919.51;;;;
2020/11/21 02:03:58;;;;;;;7.25;3.35;;;;;;;-2.65;74.66406;96919.51;;;;
2020/11/21 02:04:58;;;;;;;6.900001;3.35;;;;;;;-2.71;74.73535;96909.39;;;;
2020/11/21 02:05:59;;;;;;;6.900001;3.35;;;;;;;-2.71;74.73535;96909.39;;;;
2020/11/21 02:06:59;;;;;;;6.900001;3.35;;;;;;;-2.71;74.73535;96909.39;;;;
2020/11/21 02:08:00;;;;;;;6.900001;3.35;;;;;;;-2.71;74.73535;96909.39;;;;
2020/11/21 02:09:00;;;;;;;6.900001;3.35;;;;;;;-2.71;74.73535;96909.39;;;;
2020/11/21 02:10:01;;;;;;;6.900001;3.35;;;;;;;-2.71;74.73535;96909.39;;;;
2020/11/21 02:11:01;;;;;;;6.900001;3.35;;;;;;;-2.71;74.73535;96909.39;;;;
2020/11/21 02:12:02;;;;;;;6.900001;3.35;;;;;;;-2.71;74.73535;96909.39;;;;
2020/11/21 02:13:02;;;;;;;6.900001;3.35;;;;;;;-2.71;74.73535;96909.39;;;;
2020/11/21 02:14:05;;;;;;;6.900001;3.35;;;;;;;-2.71;74.73535;96909.39;;;;
2020/11/21 02:15:06;;;;;;;6.900001;3.35;;;;;;;-2.71;74.73535;96909.39;;;;
2020/11/21 02:16:06;;;;;;;6.9;3.1;;;;;;;-2.82;74.93457;96900.1;;;;
2020/11/21 02:17:07;;;;;;;6.9;3.1;;;;;;;-2.82;74.93457;96900.1;;;;
2020/11/21 02:18:08;;;;;;;6.9;3.1;;;;;;;-2.82;74.93457;96900.1;;;;
2020/11/21 02:19:08;;;;;;;6.9;3.1;;;;;;;-2.82;74.93457;96900.1;;;;
2020/11/21 02:20:09;;;;;;;6.9;3.1;;;;;;;-2.82;74.93457;96900.1;;;;
2020/11/21 02:21:10;;;;;;;6.9;3.1;;;;;;;-2.82;74.93457;96900.1;;;;
2020/11/21 02:22:10;;;;;;;6.9;3.1;;;;;;;-2.82;74.93457;96900.1;;;;
2020/11/21 02:23:11;;;;;;;6.9;3.1;;;;;;;-2.82;74.93457;96900.1;;;;
2020/11/21 02:24:11;;;;;;;6.9;3.1;;;;;;;-2.82;74.93457;96900.1;;;;
2020/11/21 02:25:12;;;;;;;6.9;3.1;;;;;;;-2.82;74.93457;96900.1;;;;
2020/11/21 02:26:13;;;;;;;4.599999;3.2;;;;;;;-2.9;75.0752;96893.71;;;;
2020/11/21 02:27:13;;;;;;;4.599999;3.2;;;;;;;-2.9;75.0752;96893.71;;;;
2020/11/21 02:28:14;;;;;;;4.599999;3.2;;;;;;;-2.9;75.0752;96893.71;;;;
2020/11/21 02:29:14;;;;;;;4.599999;3.2;;;;;;;-2.9;75.0752;96893.71;;;;
2020/11/21 02:30:15;;;;;;;4.599999;3.2;;;;;;;-2.9;75.0752;96893.71;;;;
2020/11/21 02:31:15;;;;;;;4.599999;3.2;;;;;;;-2.9;75.0752;96893.71;;;;
2020/11/21 02:32:16;;;;;;;4.599999;3.2;;;;;;;-2.9;75.0752;96893.71;;;;
2020/11/21 02:33:16;;;;;;;4.599999;3.2;;;;;;;-2.9;75.0752;96893.71;;;;
2020/11/21 02:34:17;;;;;;;4.599999;3.2;;;;;;;-2.9;75.0752;96893.71;;;;
2020/11/21 02:35:17;;;;;;;4.599999;3.2;;;;;;;-2.9;75.0752;96893.71;;;;
2020/11/21 02:36:18;;;;;;;4.599999;3.2;;;;;;;-2.9;75.0752;96893.71;;;;
2020/11/21 02:37:18;;;;;;;7.9;3.25;;;;;;;-2.97;75.22949;96890.26;;;;
2020/11/21 02:38:19;;;;;;;7.9;3.25;;;;;;;-2.97;75.22949;96890.26;;;;
2020/11/21 02:39:19;;;;;;;7.9;3.25;;;;;;;-2.97;75.22949;96890.26;;;;
2020/11/21 02:40:20;;;;;;;7.9;3.25;;;;;;;-2.97;75.22949;96890.26;;;;
2020/11/21 02:41:21;;;;;;;7.9;3.25;;;;;;;-2.97;75.22949;96890.26;;;;
2020/11/21 02:42:21;;;;;;;7.9;3.25;;;;;;;-2.97;75.22949;96890.26;;;;
2020/11/21 02:43:22;;;;;;;7.9;3.25;;;;;;;-2.97;75.22949;96890.26;;;;
2020/11/21 02:44:22;;;;;;;7.9;3.25;;;;;;;-2.97;75.22949;96890.26;;;;
2020/11/21 02:45:23;;;;;;;7.9;3.25;;;;;;;-2.97;75.22949;96890.26;;;;
2020/11/21 02:46:23;;;;;;;7.9;3.25;;;;;;;-2.97;75.22949;96890.26;;;;
2020/11/21 02:47:24;;;;;;;6.05;3.05;;;;;;;-3.06;75.31836;96897.05;;;;
2020/11/21 02:48:24;;;;;;;6.05;3.05;;;;;;;-3.06;75.31836;96897.05;;;;
2020/11/21 02:49:25;;;;;;;6.05;3.05;;;;;;;-3.06;75.31836;96897.05;;;;
2020/11/21 02:50:25;;;;;;;6.05;3.05;;;;;;;-3.06;75.31836;96897.05;;;;
2020/11/21 02:51:26;;;;;;;6.05;3.05;;;;;;;-3.06;75.31836;96897.05;;;;
2020/11/21 02:52:28;;;;;;;6.05;3.05;;;;;;;-3.06;75.31836;96897.05;;;;
2020/11/21 02:53:29;;;;;;;6.05;3.05;;;;;;;-3.06;75.31836;96897.05;;;;
2020/11/21 02:54:29;;;;;;;6.05;3.05;;;;;;;-3.06;75.31836;96897.05;;;;
2020/11/21 02:55:30;;;;;;;6.05;3.05;;;;;;;-3.06;75.31836;96897.05;;;;
2020/11/21 02:56:30;;;;;;;6.05;3.05;;;;;;;-3.06;75.31836;96897.05;;;;
2020/11/21 02:57:31;;;;;;;6.05;3.05;;;;;;;-3.06;75.31836;96897.05;;;;
2020/11/21 02:58:32;;;;;;;7;2.95;;;;;;;-3.11;75.43262;96892.6;;;;
2020/11/21 02:59:32;;;;;;;7;2.95;;;;;;;-3.11;75.43262;96892.6;;;;
2020/11/21 03:00:33;;;;;;;7;2.95;;;;;;;-3.11;75.43262;96892.6;;;;
2020/11/21 03:01:33;;;;;;;7;2.95;;;;;;;-3.11;75.43262;96892.6;;;;
2020/11/21 03:02:34;;;;;;;7;2.95;;;;;;;-3.11;75.43262;96892.6;;;;
2020/11/21 03:03:35;;;;;;;7;2.95;;;;;;;-3.11;75.43262;96892.6;;;;
2020/11/21 03:04:35;;;;;;;7;2.95;;;;;;;-3.11;75.43262;96892.6;;;;
2020/11/21 03:05:36;;;;;;;7;2.95;;;;;;;-3.11;75.43262;96892.6;;;;
2020/11/21 03:06:36;;;;;;;7;2.95;;;;;;;-3.11;75.43262;96892.6;;;;
2020/11/21 03:07:37;;;;;;;7;2.95;;;;;;;-3.11;75.43262;96892.6;;;;
2020/11/21 03:08:38;;;;;;;7;2.95;;;;;;;-3.11;75.43262;96892.6;;;;
2020/11/21 03:09:38;;;;;;;8.65;3.15;;;;;;;-3.13;75.49121;96875.2;;;;
2020/11/21 03:10:39;;;;;;;8.65;3.15;;;;;;;-3.13;75.49121;96875.2;;;;
2020/11/21 03:11:39;;;;;;;8.65;3.15;;;;;;;-3.13;75.49121;96875.2;;;;
2020/11/21 03:12:40;;;;;;;8.65;3.15;;;;;;;-3.13;75.49121;96875.2;;;;
2020/11/21 03:13:40;;;;;;;8.65;3.15;;;;;;;-3.13;75.49121;96875.2;;;;
2020/11/21 03:14:41;;;;;;;8.65;3.15;;;;;;;-3.13;75.49121;96875.2;;;;
2020/11/21 03:15:42;;;;;;;8.65;3.15;;;;;;;-3.13;75.49121;96875.2;;;;
2020/11/21 03:16:42;;;;;;;8.65;3.15;;;;;;;-3.13;75.49121;96875.2;;;;
2020/11/21 03:17:42;;;;;;;8.65;3.15;;;;;;;-3.13;75.49121;96875.2;;;;
2020/11/21 03:18:43;;;;;;;8.65;3.15;;;;;;;-3.13;75.49121;96875.2;;;;
2020/11/21 03:19:43;;;;;;;3.75;2.65;;;;;;;-3.21;75.56055;96856.37;;;;
2020/11/21 03:20:44;;;;;;;3.75;2.65;;;;;;;-3.21;75.56055;96856.37;;;;
2020/11/21 03:21:45;;;;;;;3.75;2.65;;;;;;;-3.21;75.56055;96856.37;;;;
2020/11/21 03:22:45;;;;;;;3.75;2.65;;;;;;;-3.21;75.56055;96856.37;;;;
2020/11/21 03:23:46;;;;;;;3.75;2.65;;;;;;;-3.21;75.56055;96856.37;;;;
2020/11/21 03:24:46;;;;;;;3.75;2.65;;;;;;;-3.21;75.56055;96856.37;;;;
2020/11/21 03:25:47;;;;;;;3.75;2.65;;;;;;;-3.21;75.56055;96856.37;;;;
2020/11/21 03:26:47;;;;;;;3.75;2.65;;;;;;;-3.21;75.56055;96856.37;;;;
2020/11/21 03:27:48;;;;;;;3.75;2.65;;;;;;;-3.21;75.56055;96856.37;;;;
2020/11/21 03:28:48;;;;;;;3.75;2.65;;;;;;;-3.21;75.56055;96856.37;;;;
2020/11/21 03:29:49;;;;;;;3.75;2.65;;;;;;;-3.21;75.56055;96856.37;;;;
2020/11/21 03:30:49;;;;;;;4.75;2.9;;;;;;;-3.28;75.61914;96848.13;;;;
2020/11/21 03:31:50;;;;;;;4.75;2.9;;;;;;;-3.28;75.61914;96848.13;;;;
2020/11/21 03:32:50;;;;;;;4.75;2.9;;;;;;;-3.28;75.61914;96848.13;;;;
2020/11/21 03:33:51;;;;;;;4.75;2.9;;;;;;;-3.28;75.61914;96848.13;;;;
2020/11/21 03:34:52;;;;;;;4.75;2.9;;;;;;;-3.28;75.61914;96848.13;;;;
2020/11/21 03:35:52;;;;;;;4.75;2.9;;;;;;;-3.28;75.61914;96848.13;;;;
2020/11/21 03:36:53;;;;;;;4.75;2.9;;;;;;;-3.28;75.61914;96848.13;;;;
2020/11/21 03:37:53;;;;;;;4.75;2.9;;;;;;;-3.28;75.61914;96848.13;;;;
2020/11/21 03:38:54;;;;;;;4.75;2.9;;;;;;;-3.28;75.61914;96848.13;;;;
2020/11/21 03:39:54;;;;;;;4.75;2.9;;;;;;;-3.28;75.61914;96848.13;;;;
2020/11/21 03:40:55;;;;;;;5.85;3.25;;;;;;;-3.3;75.75098;96834.19;;;;
2020/11/21 03:41:55;;;;;;;5.85;3.25;;;;;;;-3.3;75.75098;96834.19;;;;
2020/11/21 03:42:56;;;;;;;5.85;3.25;;;;;;;-3.3;75.75098;96834.19;;;;
2020/11/21 03:43:56;;;;;;;5.85;3.25;;;;;;;-3.3;75.75098;96834.19;;;;
2020/11/21 03:44:57;;;;;;;5.85;3.25;;;;;;;-3.3;75.75098;96834.19;;;;
2020/11/21 03:45:57;;;;;;;5.85;3.25;;;;;;;-3.3;75.75098;96834.19;;;;
2020/11/21 03:46:58;;;;;;;5.85;3.25;;;;;;;-3.3;75.75098;96834.19;;;;
2020/11/21 03:47:59;;;;;;;5.85;3.25;;;;;;;-3.3;75.75098;96834.19;;;;
2020/11/21 03:48:59;;;;;;;5.85;3.25;;;;;;;-3.3;75.75098;96834.19;;;;
2020/11/21 03:50:00;;;;;;;5.85;3.25;;;;;;;-3.3;75.75098;96834.19;;;;
2020/11/21 03:51:01;;;;;;;5.85;3.25;;;;;;;-3.3;75.75098;96834.19;;;;
2020/11/21 03:52:01;;;;;;;7.55;4.05;;;;;;;-3.33;75.72461;96846.78;;;;
2020/11/21 03:53:02;;;;;;;7.55;4.05;;;;;;;-3.33;75.72461;96846.78;;;;
2020/11/21 03:54:02;;;;;;;7.55;4.05;;;;;;;-3.33;75.72461;96846.78;;;;
2020/11/21 03:55:03;;;;;;;7.55;4.05;;;;;;;-3.33;75.72461;96846.78;;;;
2020/11/21 03:56:04;;;;;;;7.55;4.05;;;;;;;-3.33;75.72461;96846.78;;;;
2020/11/21 03:57:04;;;;;;;7.55;4.05;;;;;;;-3.33;75.72461;96846.78;;;;
2020/11/21 03:58:05;;;;;;;7.55;4.05;;;;;;;-3.33;75.72461;96846.78;;;;
2020/11/21 03:59:05;;;;;;;7.55;4.05;;;;;;;-3.33;75.72461;96846.78;;;;
2020/11/21 04:00:06;;;;;;;7.55;4.05;;;;;;;-3.33;75.72461;96846.78;;;;
2020/11/21 04:01:06;;;;;;;7.55;4.05;;;;;;;-3.33;75.72461;96846.78;;;;
2020/11/21 04:02:07;;;;;;;10.25;4.849999;;;;;;;-3.28;75.75391;96851.19;;;;
2020/11/21 04:03:07;;;;;;;10.25;4.849999;;;;;;;-3.28;75.75391;96851.19;;;;
2020/11/21 04:04:08;;;;;;;10.25;4.849999;;;;;;;-3.28;75.75391;96851.19;;;;
2020/11/21 04:05:09;;;;;;;10.25;4.849999;;;;;;;-3.28;75.75391;96851.19;;;;
2020/11/21 04:06:09;;;;;;;10.25;4.849999;;;;;;;-3.28;75.75391;96851.19;;;;
2020/11/21 04:07:10;;;;;;;10.25;4.849999;;;;;;;-3.28;75.75391;96851.19;;;;
2020/11/21 04:08:11;;;;;;;10.25;4.849999;;;;;;;-3.28;75.75391;96851.19;;;;
2020/11/21 04:09:12;;;;;;;10.25;4.849999;;;;;;;-3.28;75.75391;96851.19;;;;
2020/11/21 04:10:12;;;;;;;10.25;4.849999;;;;;;;-3.28;75.75391;96851.19;;;;
2020/11/21 04:11:13;;;;;;;10.25;4.849999;;;;;;;-3.28;75.75391;96851.19;;;;
2020/11/21 04:12:14;;;;;;;10.25;4.849999;;;;;;;-3.28;75.75391;96851.19;;;;
2020/11/21 04:13:14;;;;;;;12.5;5.1;;;;;;;-3.33;75.83887;96859.09;;;;
2020/11/21 04:14:15;;;;;;;12.5;5.1;;;;;;;-3.33;75.83887;96859.09;;;;
2020/11/21 04:15:15;;;;;;;12.5;5.1;;;;;;;-3.33;75.83887;96859.09;;;;
2020/11/21 04:16:16;;;;;;;12.5;5.1;;;;;;;-3.33;75.83887;96859.09;;;;
2020/11/21 04:17:17;;;;;;;12.5;5.1;;;;;;;-3.33;75.83887;96859.09;;;;
2020/11/21 04:18:17;;;;;;;12.5;5.1;;;;;;;-3.33;75.83887;96859.09;;;;
2020/11/21 04:19:18;;;;;;;12.5;5.1;;;;;;;-3.33;75.83887;96859.09;;;;
2020/11/21 04:20:19;;;;;;;12.5;5.1;;;;;;;-3.33;75.83887;96859.09;;;;
2020/11/21 04:21:20;;;;;;;12.5;5.1;;;;;;;-3.33;75.83887;96859.09;;;;
2020/11/21 04:22:20;;;;;;;12.5;5.1;;;;;;;-3.33;75.83887;96859.09;;;;
2020/11/21 04:23:21;;;;;;;12.5;5.1;;;;;;;-3.33;75.83887;96859.09;;;;
2020/11/21 04:24:21;;;;;;;12.1;6.35;;;;;;;-3.4;75.7627;96853.89;;;;
2020/11/21 04:25:22;;;;;;;12.1;6.35;;;;;;;-3.4;75.7627;96853.89;;;;
2020/11/21 04:26:23;;;;;;;12.1;6.35;;;;;;;-3.4;75.7627;96853.89;;;;
2020/11/21 04:27:23;;;;;;;12.1;6.35;;;;;;;-3.4;75.7627;96853.89;;;;
2020/11/21 04:28:24;;;;;;;12.1;6.35;;;;;;;-3.4;75.7627;96853.89;;;;
2020/11/21 04:29:24;;;;;;;12.1;6.35;;;;;;;-3.4;75.7627;96853.89;;;;
2020/11/21 04:30:25;;;;;;;12.1;6.35;;;;;;;-3.4;75.7627;96853.89;;;;
2020/11/21 04:31:26;;;;;;;12.1;6.35;;;;;;;-3.4;75.7627;96853.89;;;;
2020/11/21 04:32:26;;;;;;;12.1;6.35;;;;;;;-3.4;75.7627;96853.89;;;;
2020/11/21 04:33:27;;;;;;;12.1;6.35;;;;;;;-3.4;75.7627;96853.89;;;;
2020/11/21 04:34:27;;;;;;;13.85;6.6;;;;;;;-3.49;76.55469;96861.17;;;;
2020/11/21 04:35:28;;;;;;;13.85;6.6;;;;;;;-3.49;76.55469;96861.17;;;;
2020/11/21 04:36:28;;;;;;;13.85;6.6;;;;;;;-3.49;76.55469;96861.17;;;;
2020/11/21 04:37:29;;;;;;;13.85;6.6;;;;;;;-3.49;76.55469;96861.17;;;;
2020/11/21 04:38:30;;;;;;;13.85;6.6;;;;;;;-3.49;76.55469;96861.17;;;;
2020/11/21 04:39:30;;;;;;;13.85;6.6;;;;;;;-3.49;76.55469;96861.17;;;;
2020/11/21 04:40:31;;;;;;;13.85;6.6;;;;;;;-3.49;76.55469;96861.17;;;;
2020/11/21 04:41:32;;;;;;;13.85;6.6;;;;;;;-3.49;76.55469;96861.17;;;;
2020/11/21 04:42:33;;;;;;;13.85;6.6;;;;;;;-3.49;76.55469;96861.17;;;;
2020/11/21 04:43:34;;;;;;;13.85;6.6;;;;;;;-3.49;76.55469;96861.17;;;;
2020/11/21 04:44:35;;;;;;;13.85;6.6;;;;;;;-3.49;76.55469;96861.17;;;;
2020/11/21 04:45:36;;;;;;;13.95;6.95;;;;;;;-3.6;77.17578;96867.21;;;;
2020/11/21 04:46:37;;;;;;;13.95;6.95;;;;;;;-3.6;77.17578;96867.21;;;;
2020/11/21 04:47:44;;;;;;;13.95;6.95;;;;;;;-3.6;77.17578;96867.21;;;;
2020/11/21 04:48:47;;;;;;;13.95;6.95;;;;;;;-3.6;77.17578;96867.21;;;;
2020/11/21 04:49:48;;;;;;;13.95;6.95;;;;;;;-3.6;77.17578;96867.21;;;;
2020/11/21 04:50:49;;;;;;;13.95;6.95;;;;;;;-3.6;77.17578;96867.21;;;;
2020/11/21 04:51:51;;;;;;;13.95;6.95;;;;;;;-3.6;77.17578;96867.21;;;;
2020/11/21 04:52:53;;;;;;;13.95;6.95;;;;;;;-3.6;77.17578;96867.21;;;;
2020/11/21 04:53:57;;;;;;;13.95;6.95;;;;;;;-3.6;77.17578;96867.21;;;;
2020/11/21 04:54:57;;;;;;;13.95;6.95;;;;;;;-3.6;77.17578;96867.21;;;;
2020/11/21 04:55:58;;;;;;;13.15;7.1;;;;;;;-3.62;77.68945;96866.97;;;;
2020/11/21 04:57:01;;;;;;;13.15;7.1;;;;;;;-3.62;77.68945;96866.97;;;;
2020/11/21 04:58:03;;;;;;;13.15;7.1;;;;;;;-3.62;77.68945;96866.97;;;;
2020/11/21 04:59:05;;;;;;;13.15;7.1;;;;;;;-3.62;77.68945;96866.97;;;;
2020/11/21 05:00:06;;;;;;;13.15;7.1;;;;;;;-3.62;77.68945;96866.97;;;;
2020/11/21 05:01:06;;;;;;;13.15;7.1;;;;;;;-3.62;77.68945;96866.97;;;;
2020/11/21 05:02:07;;;;;;;13.15;7.1;;;;;;;-3.62;77.68945;96866.97;;;;
2020/11/21 05:03:08;;;;;;;13.15;7.1;;;;;;;-3.62;77.68945;96866.97;;;;
2020/11/21 05:04:09;;;;;;;13.15;7.1;;;;;;;-3.62;77.68945;96866.97;;;;
2020/11/21 05:05:10;;;;;;;13.15;7.1;;;;;;;-3.62;77.68945;96866.97;;;;
2020/11/21 05:06:10;;;;;;;11;7;;;;;;;-3.66;77.9082;96862.86;;;;
2020/11/21 05:07:11;;;;;;;11;7;;;;;;;-3.66;77.9082;96862.86;;;;
2020/11/21 05:08:11;;;;;;;11;7;;;;;;;-3.66;77.9082;96862.86;;;;
2020/11/21 05:09:12;;;;;;;11;7;;;;;;;-3.66;77.9082;96862.86;;;;
2020/11/21 05:10:12;;;;;;;11;7;;;;;;;-3.66;77.9082;96862.86;;;;
2020/11/21 05:11:13;;;;;;;11;7;;;;;;;-3.66;77.9082;96862.86;;;;
2020/11/21 05:12:14;;;;;;;11;7;;;;;;;-3.66;77.9082;96862.86;;;;
2020/11/21 05:13:15;;;;;;;11;7;;;;;;;-3.66;77.9082;96862.86;;;;
2020/11/21 05:14:15;;;;;;;11;7;;;;;;;-3.66;77.9082;96862.86;;;;
2020/11/21 05:15:16;;;;;;;11;7;;;;;;;-3.66;77.9082;96862.86;;;;
2020/11/21 05:16:16;;;;;;;11;7;;;;;;;-3.66;77.9082;96862.86;;;;
2020/11/21 05:17:17;;;;;;;10.7;4.799999;;;;;;;-3.78;78.45508;96857.15;;;;
2020/11/21 05:18:18;;;;;;;10.7;4.799999;;;;;;;-3.78;78.45508;96857.15;;;;
2020/11/21 05:19:18;;;;;;;10.7;4.799999;;;;;;;-3.78;78.45508;96857.15;;;;
2020/11/21 05:20:20;;;;;;;10.7;4.799999;;;;;;;-3.78;78.45508;96857.15;;;;
2020/11/21 05:21:20;;;;;;;10.7;4.799999;;;;;;;-3.78;78.45508;96857.15;;;;
2020/11/21 05:22:21;;;;;;;10.7;4.799999;;;;;;;-3.78;78.45508;96857.15;;;;
2020/11/21 05:23:21;;;;;;;10.7;4.799999;;;;;;;-3.78;78.45508;96857.15;;;;
2020/11/21 05:24:22;;;;;;;10.7;4.799999;;;;;;;-3.78;78.45508;96857.15;;;;
2020/11/21 05:25:23;;;;;;;10.7;4.799999;;;;;;;-3.78;78.45508;96857.15;;;;
2020/11/21 05:26:23;;;;;;;10.7;4.799999;;;;;;;-3.78;78.45508;96857.15;;;;
2020/11/21 05:27:24;;;;;;;10.7;4.799999;;;;;;;-3.78;78.45508;96857.15;;;;
2020/11/21 05:28:27;;;;;;;10.6;5.849999;;;;;;;-3.89;78.38477;96831.97;;;;
2020/11/21 05:29:31;;;;;;;10.6;5.849999;;;;;;;-3.89;78.38477;96831.97;;;;
2020/11/21 05:30:32;;;;;;;10.6;5.849999;;;;;;;-3.89;78.38477;96831.97;;;;
2020/11/21 05:31:32;;;;;;;10.6;5.849999;;;;;;;-3.89;78.38477;96831.97;;;;
2020/11/21 05:32:33;;;;;;;10.6;5.849999;;;;;;;-3.89;78.38477;96831.97;;;;
2020/11/21 05:33:35;;;;;;;10.6;5.849999;;;;;;;-3.89;78.38477;96831.97;;;;
2020/11/21 05:34:36;;;;;;;10.6;5.849999;;;;;;;-3.89;78.38477;96831.97;;;;
2020/11/21 05:35:40;;;;;;;10.6;5.849999;;;;;;;-3.89;78.38477;96831.97;;;;
2020/11/21 05:36:43;;;;;;;10.6;5.849999;;;;;;;-3.89;78.38477;96831.97;;;;
2020/11/21 05:37:46;;;;;;;10.6;5.849999;;;;;;;-3.89;78.38477;96831.97;;;;
2020/11/21 05:38:46;;;;;;;13.75;7.75;;;;;;;-3.95;78.26855;96825.38;;;;
2020/11/21 05:39:48;;;;;;;13.75;7.75;;;;;;;-3.95;78.26855;96825.38;;;;